sensor_id;sensor_type;location;lat;lon;timestamp;P1;durP1;ratioP1;P2;durP2;ratioP2
17169;SDS011;8700;48.222;16.342;2022-08-21T00:00:31;7.03;;;6.55;;
17169;SDS011;8700;48.222;16.342;2022-08-21T00:03:52;6.50;;;6.10;;
17169;SDS011;8700;48.222;16.342;2022-08-21T00:07:14;6.07;;;5.68;;
17169;SDS011;8700;48.222;16.342;2022-08-21T00:10:40;6.10;;;5.70;;
17169;SDS011;8700;48.222;16.342;2022-08-21T00:14:02;6.90;;;6.30;;
17169;SDS011;8700;48.222;16.342;2022-08-21T00:17:26;6.38;;;5.97;;
17169;SDS011;8700;48.222;16.342;2022-08-21T00:20:47;5.63;;;5.22;;
17169;SDS011;8700;48.222;16.342;2022-08-21T00:24:09;6.47;;;5.97;;
17169;SDS011;8700;48.222;16.342;2022-08-21T00:27:33;7.05;;;6.50;;
17169;SDS011;8700;48.222;16.342;2022-08-21T00:30:57;6.88;;;6.47;;
17169;SDS011;8700;48.222;16.342;2022-08-21T00:34:19;6.60;;;6.10;;
17169;SDS011;8700;48.222;16.342;2022-08-21T00:37:41;6.95;;;6.47;;
17169;SDS011;8700;48.222;16.342;2022-08-21T00:41:04;7.03;;;6.53;;
17169;SDS011;8700;48.222;16.342;2022-08-21T00:44:30;7.32;;;6.72;;
17169;SDS011;8700;48.222;16.342;2022-08-21T00:47:52;7.43;;;6.88;;
17169;SDS011;8700;48.222;16.342;2022-08-21T00:51:16;6.95;;;6.50;;
17169;SDS011;8700;48.222;16.342;2022-08-21T00:54:42;7.55;;;6.95;;
17169;SDS011;8700;48.222;16.342;2022-08-21T00:58:05;7.72;;;7.20;;
17169;SDS011;8700;48.222;16.342;2022-08-21T01:01:30;8.10;;;7.50;;
17169;SDS011;8700;48.222;16.342;2022-08-21T01:04:52;7.45;;;6.95;;
17169;SDS011;8700;48.222;16.342;2022-08-21T01:08:15;7.80;;;7.25;;
17169;SDS011;8700;48.222;16.342;2022-08-21T01:11:37;7.80;;;7.10;;
17169;SDS011;8700;48.222;16.342;2022-08-21T01:15:02;7.85;;;7.35;;
17169;SDS011;8700;48.222;16.342;2022-08-21T01:18:27;8.55;;;7.95;;
17169;SDS011;8700;48.222;16.342;2022-08-21T01:21:51;9.32;;;8.52;;
17169;SDS011;8700;48.222;16.342;2022-08-21T01:25:14;9.13;;;8.43;;
17169;SDS011;8700;48.222;16.342;2022-08-21T01:28:39;8.82;;;8.13;;
17169;SDS011;8700;48.222;16.342;2022-08-21T01:32:04;9.00;;;8.40;;
17169;SDS011;8700;48.222;16.342;2022-08-21T01:35:28;9.48;;;8.80;;
17169;SDS011;8700;48.222;16.342;2022-08-21T01:38:52;8.88;;;8.27;;
17169;SDS011;8700;48.222;16.342;2022-08-21T01:42:14;9.13;;;8.43;;
17169;SDS011;8700;48.222;16.342;2022-08-21T01:45:36;8.80;;;8.20;;
17169;SDS011;8700;48.222;16.342;2022-08-21T01:48:58;9.15;;;8.55;;
17169;SDS011;8700;48.222;16.342;2022-08-21T01:52:20;8.10;;;7.50;;
17169;SDS011;8700;48.222;16.342;2022-08-21T01:55:45;8.20;;;7.70;;
17169;SDS011;8700;48.222;16.342;2022-08-21T01:59:08;7.95;;;7.45;;
17169;SDS011;8700;48.222;16.342;2022-08-21T02:02:30;7.55;;;7.05;;
17169;SDS011;8700;48.222;16.342;2022-08-21T02:05:51;6.82;;;6.32;;
17169;SDS011;8700;48.222;16.342;2022-08-21T02:09:13;7.25;;;6.63;;
17169;SDS011;8700;48.222;16.342;2022-08-21T02:12:38;6.85;;;6.38;;
17169;SDS011;8700;48.222;16.342;2022-08-21T02:16:00;7.05;;;6.55;;
17169;SDS011;8700;48.222;16.342;2022-08-21T02:19:21;7.55;;;7.07;;
17169;SDS011;8700;48.222;16.342;2022-08-21T02:22:43;7.15;;;6.75;;
17169;SDS011;8700;48.222;16.342;2022-08-21T02:26:06;5.75;;;5.43;;
17169;SDS011;8700;48.222;16.342;2022-08-21T02:29:35;6.75;;;6.35;;
17169;SDS011;8700;48.222;16.342;2022-08-21T02:32:57;5.72;;;5.35;;
17169;SDS011;8700;48.222;16.342;2022-08-21T02:36:19;6.53;;;6.13;;
17169;SDS011;8700;48.222;16.342;2022-08-21T02:39:40;5.97;;;5.68;;
17169;SDS011;8700;48.222;16.342;2022-08-21T02:43:03;6.85;;;6.45;;
17169;SDS011;8700;48.222;16.342;2022-08-21T02:46:27;5.18;;;4.88;;
17169;SDS011;8700;48.222;16.342;2022-08-21T02:49:50;5.55;;;5.15;;
17169;SDS011;8700;48.222;16.342;2022-08-21T02:53:13;6.18;;;5.78;;
17169;SDS011;8700;48.222;16.342;2022-08-21T02:56:36;5.68;;;5.28;;
17169;SDS011;8700;48.222;16.342;2022-08-21T02:59:58;5.28;;;4.97;;
17169;SDS011;8700;48.222;16.342;2022-08-21T03:03:23;6.10;;;5.80;;
17169;SDS011;8700;48.222;16.342;2022-08-21T03:06:46;6.30;;;5.90;;
17169;SDS011;8700;48.222;16.342;2022-08-21T03:10:08;5.60;;;5.20;;
17169;SDS011;8700;48.222;16.342;2022-08-21T03:13:31;5.00;;;4.70;;
17169;SDS011;8700;48.222;16.342;2022-08-21T03:16:53;4.95;;;4.65;;
17169;SDS011;8700;48.222;16.342;2022-08-21T03:20:17;3.92;;;3.72;;
17169;SDS011;8700;48.222;16.342;2022-08-21T03:23:43;4.05;;;3.85;;
17169;SDS011;8700;48.222;16.342;2022-08-21T03:27:05;4.28;;;4.07;;
17169;SDS011;8700;48.222;16.342;2022-08-21T03:30:28;3.63;;;3.42;;
17169;SDS011;8700;48.222;16.342;2022-08-21T03:33:51;3.50;;;3.30;;
17169;SDS011;8700;48.222;16.342;2022-08-21T03:37:16;3.70;;;3.50;;
17169;SDS011;8700;48.222;16.342;2022-08-21T03:40:38;2.88;;;2.78;;
17169;SDS011;8700;48.222;16.342;2022-08-21T03:44:00;3.40;;;3.20;;
17169;SDS011;8700;48.222;16.342;2022-08-21T03:47:21;3.22;;;3.13;;
17169;SDS011;8700;48.222;16.342;2022-08-21T03:50:44;3.55;;;3.35;;
17169;SDS011;8700;48.222;16.342;2022-08-21T03:54:10;3.00;;;2.90;;
17169;SDS011;8700;48.222;16.342;2022-08-21T03:57:31;3.85;;;3.65;;
17169;SDS011;8700;48.222;16.342;2022-08-21T04:00:55;3.33;;;3.20;;
17169;SDS011;8700;48.222;16.342;2022-08-21T04:04:18;3.85;;;3.65;;
17169;SDS011;8700;48.222;16.342;2022-08-21T04:07:39;4.53;;;4.32;;
17169;SDS011;8700;48.222;16.342;2022-08-21T04:11:04;4.35;;;4.15;;
17169;SDS011;8700;48.222;16.342;2022-08-21T04:14:26;4.05;;;3.85;;
17169;SDS011;8700;48.222;16.342;2022-08-21T04:17:49;4.25;;;3.95;;
17169;SDS011;8700;48.222;16.342;2022-08-21T04:21:13;2.97;;;2.88;;
17169;SDS011;8700;48.222;16.342;2022-08-21T04:24:35;4.68;;;4.38;;
17169;SDS011;8700;48.222;16.342;2022-08-21T04:28:06;4.63;;;4.32;;
17169;SDS011;8700;48.222;16.342;2022-08-21T04:31:29;5.13;;;4.82;;
17169;SDS011;8700;48.222;16.342;2022-08-21T04:34:56;4.82;;;4.53;;
17169;SDS011;8700;48.222;16.342;2022-08-21T04:38:20;5.85;;;5.35;;
17169;SDS011;8700;48.222;16.342;2022-08-21T04:41:45;4.88;;;4.57;;
17169;SDS011;8700;48.222;16.342;2022-08-21T04:45:09;4.88;;;4.57;;
17169;SDS011;8700;48.222;16.342;2022-08-21T04:48:40;4.93;;;4.63;;
17169;SDS011;8700;48.222;16.342;2022-08-21T04:52:02;6.22;;;5.82;;
17169;SDS011;8700;48.222;16.342;2022-08-21T04:55:24;4.88;;;4.57;;
17169;SDS011;8700;48.222;16.342;2022-08-21T04:58:48;5.75;;;5.45;;
17169;SDS011;8700;48.222;16.342;2022-08-21T05:02:13;5.63;;;5.22;;
17169;SDS011;8700;48.222;16.342;2022-08-21T05:05:35;5.78;;;5.43;;
17169;SDS011;8700;48.222;16.342;2022-08-21T05:08:59;6.00;;;5.57;;
17169;SDS011;8700;48.222;16.342;2022-08-21T05:12:24;5.50;;;5.20;;
17169;SDS011;8700;48.222;16.342;2022-08-21T05:15:46;6.25;;;5.85;;
17169;SDS011;8700;48.222;16.342;2022-08-21T05:19:10;5.43;;;5.10;;
17169;SDS011;8700;48.222;16.342;2022-08-21T05:22:32;6.07;;;5.68;;
17169;SDS011;8700;48.222;16.342;2022-08-21T05:25:53;5.63;;;5.32;;
17169;SDS011;8700;48.222;16.342;2022-08-21T05:29:16;5.25;;;4.95;;
17169;SDS011;8700;48.222;16.342;2022-08-21T05:32:38;6.15;;;5.75;;
17169;SDS011;8700;48.222;16.342;2022-08-21T05:36:02;6.00;;;5.60;;
17169;SDS011;8700;48.222;16.342;2022-08-21T05:39:24;5.82;;;5.43;;
17169;SDS011;8700;48.222;16.342;2022-08-21T05:42:47;6.60;;;6.20;;
17169;SDS011;8700;48.222;16.342;2022-08-21T05:46:08;6.60;;;6.10;;
17169;SDS011;8700;48.222;16.342;2022-08-21T05:49:30;7.88;;;6.55;;
17169;SDS011;8700;48.222;16.342;2022-08-21T05:52:54;6.30;;;5.90;;
17169;SDS011;8700;48.222;16.342;2022-08-21T05:56:17;6.47;;;6.00;;
17169;SDS011;8700;48.222;16.342;2022-08-21T05:59:39;6.97;;;6.47;;
17169;SDS011;8700;48.222;16.342;2022-08-21T06:03:00;6.93;;;6.53;;
17169;SDS011;8700;48.222;16.342;2022-08-21T06:06:22;6.78;;;6.38;;
17169;SDS011;8700;48.222;16.342;2022-08-21T06:09:47;6.22;;;5.82;;
17169;SDS011;8700;48.222;16.342;2022-08-21T06:13:09;6.60;;;6.00;;
17169;SDS011;8700;48.222;16.342;2022-08-21T06:16:32;6.05;;;5.65;;
17169;SDS011;8700;48.222;16.342;2022-08-21T06:19:54;6.47;;;6.07;;
17169;SDS011;8700;48.222;16.342;2022-08-21T06:23:16;6.43;;;6.00;;
17169;SDS011;8700;48.222;16.342;2022-08-21T06:26:42;6.32;;;5.93;;
17169;SDS011;8700;48.222;16.342;2022-08-21T06:30:06;6.55;;;6.15;;
17169;SDS011;8700;48.222;16.342;2022-08-21T06:33:30;6.47;;;6.03;;
17169;SDS011;8700;48.222;16.342;2022-08-21T06:36:51;6.60;;;6.03;;
17169;SDS011;8700;48.222;16.342;2022-08-21T06:40:13;6.00;;;5.60;;
17169;SDS011;8700;48.222;16.342;2022-08-21T06:43:36;6.63;;;6.05;;
17169;SDS011;8700;48.222;16.342;2022-08-21T06:47:03;6.13;;;5.72;;
17169;SDS011;8700;48.222;16.342;2022-08-21T06:50:24;6.35;;;5.85;;
17169;SDS011;8700;48.222;16.342;2022-08-21T06:53:48;6.97;;;6.40;;
17169;SDS011;8700;48.222;16.342;2022-08-21T06:57:11;7.47;;;6.88;;
17169;SDS011;8700;48.222;16.342;2022-08-21T07:00:35;7.20;;;6.70;;
17169;SDS011;8700;48.222;16.342;2022-08-21T07:04:00;6.70;;;6.20;;
17169;SDS011;8700;48.222;16.342;2022-08-21T07:07:22;6.72;;;6.28;;
17169;SDS011;8700;48.222;16.342;2022-08-21T07:10:44;7.22;;;6.72;;
17169;SDS011;8700;48.222;16.342;2022-08-21T07:14:07;6.82;;;6.43;;
17169;SDS011;8700;48.222;16.342;2022-08-21T07:17:30;6.93;;;6.47;;
17169;SDS011;8700;48.222;16.342;2022-08-21T07:20:52;6.40;;;5.90;;
17169;SDS011;8700;48.222;16.342;2022-08-21T07:24:15;7.07;;;6.68;;
17169;SDS011;8700;48.222;16.342;2022-08-21T07:27:38;7.00;;;6.50;;
17169;SDS011;8700;48.222;16.342;2022-08-21T07:31:00;7.35;;;6.75;;
17169;SDS011;8700;48.222;16.342;2022-08-21T07:34:25;7.57;;;7.07;;
17169;SDS011;8700;48.222;16.342;2022-08-21T07:37:47;7.03;;;6.53;;
17169;SDS011;8700;48.222;16.342;2022-08-21T07:41:13;7.35;;;6.85;;
17169;SDS011;8700;48.222;16.342;2022-08-21T07:44:41;7.18;;;6.57;;
17169;SDS011;8700;48.222;16.342;2022-08-21T07:48:03;7.75;;;7.18;;
17169;SDS011;8700;48.222;16.342;2022-08-21T07:51:26;7.60;;;7.10;;
17169;SDS011;8700;48.222;16.342;2022-08-21T07:54:50;7.95;;;7.45;;
17169;SDS011;8700;48.222;16.342;2022-08-21T07:58:15;7.05;;;6.55;;
17169;SDS011;8700;48.222;16.342;2022-08-21T08:01:37;8.05;;;7.55;;
17169;SDS011;8700;48.222;16.342;2022-08-21T08:04:58;7.90;;;7.40;;
17169;SDS011;8700;48.222;16.342;2022-08-21T08:08:25;8.20;;;7.70;;
17169;SDS011;8700;48.222;16.342;2022-08-21T08:11:48;8.68;;;8.07;;
17169;SDS011;8700;48.222;16.342;2022-08-21T08:15:11;8.73;;;7.93;;
17169;SDS011;8700;48.222;16.342;2022-08-21T08:18:35;8.38;;;7.78;;
17169;SDS011;8700;48.222;16.342;2022-08-21T08:21:57;9.05;;;8.45;;
17169;SDS011;8700;48.222;16.342;2022-08-21T08:25:20;7.60;;;7.00;;
17169;SDS011;8700;48.222;16.342;2022-08-21T08:28:43;9.10;;;8.30;;
17169;SDS011;8700;48.222;16.342;2022-08-21T08:32:06;8.30;;;7.70;;
17169;SDS011;8700;48.222;16.342;2022-08-21T08:35:29;7.93;;;7.38;;
17169;SDS011;8700;48.222;16.342;2022-08-21T08:38:51;8.05;;;7.55;;
17169;SDS011;8700;48.222;16.342;2022-08-21T08:42:17;7.63;;;7.13;;
17169;SDS011;8700;48.222;16.342;2022-08-21T08:45:46;7.20;;;6.70;;
17169;SDS011;8700;48.222;16.342;2022-08-21T08:49:13;8.45;;;7.90;;
17169;SDS011;8700;48.222;16.342;2022-08-21T08:52:43;8.23;;;7.70;;
17169;SDS011;8700;48.222;16.342;2022-08-21T08:56:09;6.57;;;6.18;;
17169;SDS011;8700;48.222;16.342;2022-08-21T08:59:35;6.50;;;6.10;;
17169;SDS011;8700;48.222;16.342;2022-08-21T09:03:01;6.40;;;6.00;;
17169;SDS011;8700;48.222;16.342;2022-08-21T09:06:37;7.60;;;7.00;;
17169;SDS011;8700;48.222;16.342;2022-08-21T09:10:13;7.05;;;6.55;;
17169;SDS011;8700;48.222;16.342;2022-08-21T09:13:44;6.50;;;6.10;;
17169;SDS011;8700;48.222;16.342;2022-08-21T09:17:16;6.03;;;5.63;;
17169;SDS011;8700;48.222;16.342;2022-08-21T09:21:13;5.55;;;5.20;;
17169;SDS011;8700;48.222;16.342;2022-08-21T09:24:44;5.40;;;5.10;;
17169;SDS011;8700;48.222;16.342;2022-08-21T09:28:15;3.78;;;3.47;;
17169;SDS011;8700;48.222;16.342;2022-08-21T09:31:39;5.15;;;4.75;;
17169;SDS011;8700;48.222;16.342;2022-08-21T09:35:07;5.47;;;5.07;;
17169;SDS011;8700;48.222;16.342;2022-08-21T09:38:33;5.35;;;5.05;;
17169;SDS011;8700;48.222;16.342;2022-08-21T09:41:57;4.72;;;4.43;;
17169;SDS011;8700;48.222;16.342;2022-08-21T09:45:22;4.50;;;4.22;;
17169;SDS011;8700;48.222;16.342;2022-08-21T09:48:45;5.13;;;4.82;;
17169;SDS011;8700;48.222;16.342;2022-08-21T09:52:15;4.90;;;4.63;;
17169;SDS011;8700;48.222;16.342;2022-08-21T09:55:46;3.78;;;3.47;;
17169;SDS011;8700;48.222;16.342;2022-08-21T09:59:29;4.47;;;4.28;;
17169;SDS011;8700;48.222;16.342;2022-08-21T10:02:55;4.30;;;4.10;;
17169;SDS011;8700;48.222;16.342;2022-08-21T10:06:29;3.95;;;3.58;;
17169;SDS011;8700;48.222;16.342;2022-08-21T10:10:04;3.63;;;3.40;;
17169;SDS011;8700;48.222;16.342;2022-08-21T10:13:36;3.35;;;3.20;;
17169;SDS011;8700;48.222;16.342;2022-08-21T10:17:11;4.07;;;3.88;;
17169;SDS011;8700;48.222;16.342;2022-08-21T10:20:40;4.68;;;4.32;;
17169;SDS011;8700;48.222;16.342;2022-08-21T10:24:09;5.10;;;4.75;;
17169;SDS011;8700;48.222;16.342;2022-08-21T10:27:42;6.45;;;5.97;;
17169;SDS011;8700;48.222;16.342;2022-08-21T10:31:13;6.18;;;5.78;;
17169;SDS011;8700;48.222;16.342;2022-08-21T10:34:45;5.65;;;5.25;;
17169;SDS011;8700;48.222;16.342;2022-08-21T10:38:39;5.93;;;5.53;;
17169;SDS011;8700;48.222;16.342;2022-08-21T10:42:25;6.18;;;5.72;;
17169;SDS011;8700;48.222;16.342;2022-08-21T10:45:57;6.00;;;5.60;;
17169;SDS011;8700;48.222;16.342;2022-08-21T10:49:32;4.15;;;3.85;;
17169;SDS011;8700;48.222;16.342;2022-08-21T10:53:05;6.05;;;5.63;;
17169;SDS011;8700;48.222;16.342;2022-08-21T10:56:38;4.43;;;4.13;;
17169;SDS011;8700;48.222;16.342;2022-08-21T11:00:03;4.25;;;4.05;;
17169;SDS011;8700;48.222;16.342;2022-08-21T11:03:32;4.65;;;4.35;;
17169;SDS011;8700;48.222;16.342;2022-08-21T11:06:58;4.85;;;4.55;;
17169;SDS011;8700;48.222;16.342;2022-08-21T11:10:26;4.22;;;4.03;;
17169;SDS011;8700;48.222;16.342;2022-08-21T11:13:53;3.67;;;3.47;;
17169;SDS011;8700;48.222;16.342;2022-08-21T11:17:18;4.30;;;4.00;;
17169;SDS011;8700;48.222;16.342;2022-08-21T11:20:49;3.08;;;2.88;;
17169;SDS011;8700;48.222;16.342;2022-08-21T11:24:21;3.60;;;3.40;;
17169;SDS011;8700;48.222;16.342;2022-08-21T11:27:50;4.38;;;4.07;;
17169;SDS011;8700;48.222;16.342;2022-08-21T11:31:25;3.03;;;2.83;;
17169;SDS011;8700;48.222;16.342;2022-08-21T11:34:58;3.40;;;3.20;;
17169;SDS011;8700;48.222;16.342;2022-08-21T11:38:29;3.05;;;2.85;;
17169;SDS011;8700;48.222;16.342;2022-08-21T11:42:00;3.83;;;3.63;;
17169;SDS011;8700;48.222;16.342;2022-08-21T11:45:28;3.95;;;3.65;;
17169;SDS011;8700;48.222;16.342;2022-08-21T11:49:02;3.83;;;3.42;;
17169;SDS011;8700;48.222;16.342;2022-08-21T11:52:36;4.18;;;3.90;;
17169;SDS011;8700;48.222;16.342;2022-08-21T11:56:03;3.53;;;3.22;;
17169;SDS011;8700;48.222;16.342;2022-08-21T11:59:36;3.75;;;3.55;;
17169;SDS011;8700;48.222;16.342;2022-08-21T12:03:06;3.85;;;3.65;;
17169;SDS011;8700;48.222;16.342;2022-08-21T12:06:31;6.85;;;6.35;;
17169;SDS011;8700;48.222;16.342;2022-08-21T12:09:55;4.03;;;3.83;;
17169;SDS011;8700;48.222;16.342;2022-08-21T12:13:25;4.10;;;3.80;;
17169;SDS011;8700;48.222;16.342;2022-08-21T12:16:49;3.72;;;3.42;;
17169;SDS011;8700;48.222;16.342;2022-08-21T12:20:16;4.55;;;4.25;;
17169;SDS011;8700;48.222;16.342;2022-08-21T12:23:44;4.10;;;3.80;;
17169;SDS011;8700;48.222;16.342;2022-08-21T12:27:21;4.75;;;4.45;;
17169;SDS011;8700;48.222;16.342;2022-08-21T12:30:48;3.85;;;3.65;;
17169;SDS011;8700;48.222;16.342;2022-08-21T12:34:10;4.55;;;4.25;;
17169;SDS011;8700;48.222;16.342;2022-08-21T12:37:34;4.00;;;3.80;;
17169;SDS011;8700;48.222;16.342;2022-08-21T12:41:00;4.40;;;4.00;;
17169;SDS011;8700;48.222;16.342;2022-08-21T12:44:26;4.93;;;4.63;;
17169;SDS011;8700;48.222;16.342;2022-08-21T12:47:58;4.10;;;3.72;;
17169;SDS011;8700;48.222;16.342;2022-08-21T12:51:27;4.40;;;3.83;;
17169;SDS011;8700;48.222;16.342;2022-08-21T12:54:53;5.03;;;4.68;;
17169;SDS011;8700;48.222;16.342;2022-08-21T12:58:18;4.10;;;3.85;;
17169;SDS011;8700;48.222;16.342;2022-08-21T13:01:44;4.13;;;3.78;;
17169;SDS011;8700;48.222;16.342;2022-08-21T13:05:11;3.80;;;3.58;;
17169;SDS011;8700;48.222;16.342;2022-08-21T13:08:35;4.40;;;4.20;;
17169;SDS011;8700;48.222;16.342;2022-08-21T13:11:57;3.75;;;3.55;;
17169;SDS011;8700;48.222;16.342;2022-08-21T13:15:22;3.65;;;3.45;;
17169;SDS011;8700;48.222;16.342;2022-08-21T13:18:52;4.13;;;3.70;;
17169;SDS011;8700;48.222;16.342;2022-08-21T13:22:17;4.30;;;4.10;;
17169;SDS011;8700;48.222;16.342;2022-08-21T13:25:39;4.68;;;4.35;;
17169;SDS011;8700;48.222;16.342;2022-08-21T13:29:05;4.07;;;3.88;;
17169;SDS011;8700;48.222;16.342;2022-08-21T13:32:30;4.28;;;4.07;;
17169;SDS011;8700;48.222;16.342;2022-08-21T13:35:57;4.40;;;4.00;;
17169;SDS011;8700;48.222;16.342;2022-08-21T13:39:26;4.65;;;4.30;;
17169;SDS011;8700;48.222;16.342;2022-08-21T13:42:48;5.72;;;5.43;;
17169;SDS011;8700;48.222;16.342;2022-08-21T13:46:10;5.10;;;4.80;;
17169;SDS011;8700;48.222;16.342;2022-08-21T13:49:35;4.72;;;4.32;;
17169;SDS011;8700;48.222;16.342;2022-08-21T13:52:59;5.30;;;4.90;;
17169;SDS011;8700;48.222;16.342;2022-08-21T13:56:25;4.82;;;4.53;;
17169;SDS011;8700;48.222;16.342;2022-08-21T13:59:48;4.85;;;4.55;;
17169;SDS011;8700;48.222;16.342;2022-08-21T14:03:11;4.82;;;4.43;;
17169;SDS011;8700;48.222;16.342;2022-08-21T14:06:48;5.28;;;4.78;;
17169;SDS011;8700;48.222;16.342;2022-08-21T14:10:12;5.50;;;5.10;;
17169;SDS011;8700;48.222;16.342;2022-08-21T14:13:39;6.18;;;5.18;;
17169;SDS011;8700;48.222;16.342;2022-08-21T14:17:03;5.53;;;4.97;;
17169;SDS011;8700;48.222;16.342;2022-08-21T14:20:27;5.38;;;4.97;;
17169;SDS011;8700;48.222;16.342;2022-08-21T14:23:58;5.20;;;4.75;;
17169;SDS011;8700;48.222;16.342;2022-08-21T14:27:22;5.00;;;4.70;;
17169;SDS011;8700;48.222;16.342;2022-08-21T14:30:46;5.47;;;5.18;;
17169;SDS011;8700;48.222;16.342;2022-08-21T14:34:09;4.70;;;4.40;;
17169;SDS011;8700;48.222;16.342;2022-08-21T14:37:33;6.22;;;5.65;;
17169;SDS011;8700;48.222;16.342;2022-08-21T14:40:56;5.97;;;5.57;;
17169;SDS011;8700;48.222;16.342;2022-08-21T14:44:20;5.55;;;5.15;;
17169;SDS011;8700;48.222;16.342;2022-08-21T14:47:42;6.32;;;5.82;;
17169;SDS011;8700;48.222;16.342;2022-08-21T14:51:05;6.20;;;5.80;;
17169;SDS011;8700;48.222;16.342;2022-08-21T14:54:28;5.85;;;5.35;;
17169;SDS011;8700;48.222;16.342;2022-08-21T14:57:51;6.72;;;6.32;;
17169;SDS011;8700;48.222;16.342;2022-08-21T15:01:15;7.07;;;6.47;;
17169;SDS011;8700;48.222;16.342;2022-08-21T15:04:39;7.25;;;6.65;;
17169;SDS011;8700;48.222;16.342;2022-08-21T15:08:02;6.57;;;6.10;;
17169;SDS011;8700;48.222;16.342;2022-08-21T15:11:24;6.63;;;6.22;;
17169;SDS011;8700;48.222;16.342;2022-08-21T15:14:46;6.80;;;6.35;;
17169;SDS011;8700;48.222;16.342;2022-08-21T15:18:08;6.57;;;6.13;;
17169;SDS011;8700;48.222;16.342;2022-08-21T15:21:31;7.28;;;6.57;;
17169;SDS011;8700;48.222;16.342;2022-08-21T15:24:53;6.07;;;5.68;;
17169;SDS011;8700;48.222;16.342;2022-08-21T15:28:15;7.53;;;6.88;;
17169;SDS011;8700;48.222;16.342;2022-08-21T15:31:39;6.60;;;6.10;;
17169;SDS011;8700;48.222;16.342;2022-08-21T15:35:11;7.28;;;6.68;;
17169;SDS011;8700;48.222;16.342;2022-08-21T15:38:36;10.15;;;9.02;;
17169;SDS011;8700;48.222;16.342;2022-08-21T15:41:58;6.32;;;5.88;;
17169;SDS011;8700;48.222;16.342;2022-08-21T15:45:20;6.38;;;5.95;;
17169;SDS011;8700;48.222;16.342;2022-08-21T15:48:41;7.10;;;5.43;;
17169;SDS011;8700;48.222;16.342;2022-08-21T15:52:04;6.43;;;5.93;;
17169;SDS011;8700;48.222;16.342;2022-08-21T15:55:28;6.80;;;6.30;;
17169;SDS011;8700;48.222;16.342;2022-08-21T15:58:52;6.57;;;5.97;;
17169;SDS011;8700;48.222;16.342;2022-08-21T16:02:20;6.93;;;6.38;;
17169;SDS011;8700;48.222;16.342;2022-08-21T16:05:44;6.78;;;6.20;;
17169;SDS011;8700;48.222;16.342;2022-08-21T16:09:07;7.47;;;6.90;;
17169;SDS011;8700;48.222;16.342;2022-08-21T16:12:32;7.63;;;7.03;;
17169;SDS011;8700;48.222;16.342;2022-08-21T16:15:56;7.38;;;6.88;;
17169;SDS011;8700;48.222;16.342;2022-08-21T16:19:18;8.00;;;7.40;;
17169;SDS011;8700;48.222;16.342;2022-08-21T16:22:40;8.25;;;7.75;;
17169;SDS011;8700;48.222;16.342;2022-08-21T16:26:02;8.38;;;7.57;;
17169;SDS011;8700;48.222;16.342;2022-08-21T16:29:27;7.82;;;7.22;;
17169;SDS011;8700;48.222;16.342;2022-08-21T16:32:53;7.82;;;7.32;;
17169;SDS011;8700;48.222;16.342;2022-08-21T16:36:16;8.43;;;7.75;;
17169;SDS011;8700;48.222;16.342;2022-08-21T16:39:38;8.82;;;8.13;;
17169;SDS011;8700;48.222;16.342;2022-08-21T16:43:00;8.50;;;7.90;;
17169;SDS011;8700;48.222;16.342;2022-08-21T16:46:24;7.25;;;6.72;;
17169;SDS011;8700;48.222;16.342;2022-08-21T16:49:45;9.07;;;8.27;;
17169;SDS011;8700;48.222;16.342;2022-08-21T16:53:09;8.05;;;7.45;;
17169;SDS011;8700;48.222;16.342;2022-08-21T16:56:30;7.30;;;6.68;;
17169;SDS011;8700;48.222;16.342;2022-08-21T16:59:54;7.53;;;6.93;;
17169;SDS011;8700;48.222;16.342;2022-08-21T17:03:17;7.90;;;7.38;;
17169;SDS011;8700;48.222;16.342;2022-08-21T17:06:45;7.60;;;6.93;;
17169;SDS011;8700;48.222;16.342;2022-08-21T17:10:07;8.18;;;7.47;;
17169;SDS011;8700;48.222;16.342;2022-08-21T17:13:31;8.05;;;7.47;;
17169;SDS011;8700;48.222;16.342;2022-08-21T17:16:53;6.90;;;6.32;;
17169;SDS011;8700;48.222;16.342;2022-08-21T17:20:19;6.72;;;6.32;;
17169;SDS011;8700;48.222;16.342;2022-08-21T17:23:41;7.03;;;6.32;;
17169;SDS011;8700;48.222;16.342;2022-08-21T17:27:03;6.75;;;6.00;;
17169;SDS011;8700;48.222;16.342;2022-08-21T17:30:27;7.82;;;6.28;;
17169;SDS011;8700;48.222;16.342;2022-08-21T17:33:50;7.50;;;6.95;;
17169;SDS011;8700;48.222;16.342;2022-08-21T17:37:14;7.53;;;6.85;;
17169;SDS011;8700;48.222;16.342;2022-08-21T17:40:36;7.57;;;7.07;;
17169;SDS011;8700;48.222;16.342;2022-08-21T17:43:58;7.57;;;6.88;;
17169;SDS011;8700;48.222;16.342;2022-08-21T17:47:24;6.55;;;5.97;;
17169;SDS011;8700;48.222;16.342;2022-08-21T17:50:46;8.00;;;7.50;;
17169;SDS011;8700;48.222;16.342;2022-08-21T17:54:09;7.82;;;7.13;;
17169;SDS011;8700;48.222;16.342;2022-08-21T17:57:31;7.05;;;6.55;;
17169;SDS011;8700;48.222;16.342;2022-08-21T18:01:02;7.00;;;6.40;;
17169;SDS011;8700;48.222;16.342;2022-08-21T18:04:25;7.50;;;6.90;;
17169;SDS011;8700;48.222;16.342;2022-08-21T18:07:49;7.53;;;6.93;;
17169;SDS011;8700;48.222;16.342;2022-08-21T18:11:12;8.05;;;7.40;;
17169;SDS011;8700;48.222;16.342;2022-08-21T18:14:37;7.50;;;6.93;;
17169;SDS011;8700;48.222;16.342;2022-08-21T18:17:59;7.30;;;6.68;;
17169;SDS011;8700;48.222;16.342;2022-08-21T18:21:23;6.80;;;6.30;;
17169;SDS011;8700;48.222;16.342;2022-08-21T18:24:44;8.00;;;7.38;;
17169;SDS011;8700;48.222;16.342;2022-08-21T18:28:08;8.43;;;6.68;;
17169;SDS011;8700;48.222;16.342;2022-08-21T18:31:30;7.40;;;6.70;;
17169;SDS011;8700;48.222;16.342;2022-08-21T18:35:07;7.47;;;6.85;;
17169;SDS011;8700;48.222;16.342;2022-08-21T18:38:29;7.55;;;6.95;;
17169;SDS011;8700;48.222;16.342;2022-08-21T18:41:54;7.82;;;7.15;;
17169;SDS011;8700;48.222;16.342;2022-08-21T18:45:19;8.93;;;8.23;;
17169;SDS011;8700;48.222;16.342;2022-08-21T18:48:41;8.23;;;7.05;;
17169;SDS011;8700;48.222;16.342;2022-08-21T18:52:03;8.35;;;7.50;;
17169;SDS011;8700;48.222;16.342;2022-08-21T18:55:26;7.85;;;7.20;;
17169;SDS011;8700;48.222;16.342;2022-08-21T18:58:49;8.18;;;7.43;;
17169;SDS011;8700;48.222;16.342;2022-08-21T19:02:17;9.15;;;8.25;;
17169;SDS011;8700;48.222;16.342;2022-08-21T19:05:39;7.18;;;6.57;;
17169;SDS011;8700;48.222;16.342;2022-08-21T19:09:03;7.25;;;6.60;;
17169;SDS011;8700;48.222;16.342;2022-08-21T19:12:25;8.02;;;7.35;;
17169;SDS011;8700;48.222;16.342;2022-08-21T19:15:50;7.32;;;6.78;;
17169;SDS011;8700;48.222;16.342;2022-08-21T19:19:13;8.63;;;6.45;;
17169;SDS011;8700;48.222;16.342;2022-08-21T19:22:36;7.47;;;6.88;;
17169;SDS011;8700;48.222;16.342;2022-08-21T19:26:00;7.55;;;6.85;;
17169;SDS011;8700;48.222;16.342;2022-08-21T19:29:23;6.93;;;6.32;;
17169;SDS011;8700;48.222;16.342;2022-08-21T19:32:44;6.80;;;6.30;;
17169;SDS011;8700;48.222;16.342;2022-08-21T19:36:10;7.07;;;6.13;;
17169;SDS011;8700;48.222;16.342;2022-08-21T19:39:31;7.60;;;7.05;;
17169;SDS011;8700;48.222;16.342;2022-08-21T19:42:57;9.52;;;8.02;;
17169;SDS011;8700;48.222;16.342;2022-08-21T19:46:22;7.55;;;6.82;;
17169;SDS011;8700;48.222;16.342;2022-08-21T19:49:48;8.90;;;8.10;;
17169;SDS011;8700;48.222;16.342;2022-08-21T19:53:12;7.60;;;6.90;;
17169;SDS011;8700;48.222;16.342;2022-08-21T19:56:33;6.90;;;6.30;;
17169;SDS011;8700;48.222;16.342;2022-08-21T19:59:55;8.57;;;7.88;;
17169;SDS011;8700;48.222;16.342;2022-08-21T20:03:16;7.72;;;7.13;;
17169;SDS011;8700;48.222;16.342;2022-08-21T20:06:38;8.20;;;7.50;;
17169;SDS011;8700;48.222;16.342;2022-08-21T20:10:02;7.70;;;7.10;;
17169;SDS011;8700;48.222;16.342;2022-08-21T20:13:24;7.85;;;7.20;;
17169;SDS011;8700;48.222;16.342;2022-08-21T20:16:51;7.18;;;6.47;;
17169;SDS011;8700;48.222;16.342;2022-08-21T20:20:14;8.15;;;7.38;;
17169;SDS011;8700;48.222;16.342;2022-08-21T20:23:35;7.45;;;6.85;;
17169;SDS011;8700;48.222;16.342;2022-08-21T20:26:59;7.07;;;6.57;;
17169;SDS011;8700;48.222;16.342;2022-08-21T20:30:22;6.93;;;6.40;;
17169;SDS011;8700;48.222;16.342;2022-08-21T20:33:43;7.20;;;6.70;;